Champion — WCZ7631 — position and weather

sailwx.info

Track history (hours):
 
Tides and Currents Weather Stations Pressure Air Temp Water Temp Dewpoint Dewpoint Depression Visibility Wind Speed Wind Dir Waves Ship Positions

Champion

More information available from US FCC via Universal Licensing System and Coast Guard Vessel Documentation Center.

Last reported at 2014-Aug-03 05:27 UTC. Time now 2014-Aug-20 12:44 UTC.
Position N 26°00' W 079°28'.
Warning: this ship's position is 17 days out of date.

Length 20 m; draft 1.7 m.

Type: Towing. MMSI: 367005250.

Date/timePositionNaut miles runAvg speedWind from/ knotsBaromVisibWave heightAir tempDewpointWater temp
2014-Aug-03 05:27N 26°00' W 079°28'4 4.0
2014-Aug-03 04:33N 26°01' W 079°32'4 4.0
2014-Aug-03 03:33N 26°02' W 079°37'4 3.9
2014-Aug-03 02:33N 26°02' W 079°41'4 3.7
2014-Aug-03 01:33N 26°02' W 079°45'4 3.5
2014-Aug-03 00:33N 26°02' W 079°49'3 3.4
2014-Aug-02 23:33N 26°02' W 079°53'4 3.6
2014-Aug-02 22:33N 26°03' W 079°56'4 3.7
2014-Aug-02 21:33N 26°05' W 080°00'4 3.7
2014-Aug-02 20:33N 26°06' W 080°04'4 4.4
2014-Aug-02 19:33N 26°11' W 080°05'5 4.8
2014-Aug-02 18:33N 26°15' W 080°04'5 4.7
2014-Aug-02 17:33N 26°20' W 080°04'5 4.7
2014-Aug-02 16:33N 26°25' W 080°03'5 5.4
2014-Aug-02 15:32N 26°30' W 080°02'17 5.1
2014-Aug-02 12:20N 26°47' W 080°01'3 4.4
2014-Aug-02 11:33N 26°50' W 080°02'4 3.6
2014-Aug-02 10:33N 26°54' W 080°02'4 4.2
2014-Aug-02 09:33N 26°58' W 080°03'5 4.6
2014-Aug-02 08:33N 27°02' W 080°04'  
2014-Jul-30 18:33N 27°03' W 079°60'9 9.1
2014-Jul-30 17:33N 26°54' W 079°60'7 0.4
2014-Jul-29 23:33N 26°47' W 080°01'4 4.3
2014-Jul-29 22:33N 26°51' W 080°02'3 2.9
2014-Jul-29 21:33N 26°54' W 080°03'0 0.1
2014-Jul-29 20:33N 26°54' W 080°03'0 0.0
2014-Jul-29 19:33N 26°54' W 080°03'0 0.1
2014-Jul-29 18:33N 26°54' W 080°03'0 0.0
2014-Jul-29 17:33N 26°54' W 080°03'0 0.0
2014-Jul-29 16:33N 26°54' W 080°03'0 0.1
2014-Jul-29 15:33N 26°54' W 080°03'0 0.1
2014-Jul-29 14:33N 26°54' W 080°03'0 0.3
2014-Jul-29 13:33N 26°54' W 080°03'1 1.1
2014-Jul-29 12:33N 26°53' W 080°02'2 2.2
2014-Jul-29 11:33N 26°51' W 080°02'  
2014-Jul-26 21:21N 26°47' W 080°01'2 2.8
2014-Jul-26 20:33N 26°49' W 080°02'5 5.1
2014-Jul-26 19:33N 26°54' W 080°03'5 4.9
2014-Jul-26 18:33N 26°59' W 080°04'5 5.0
2014-Jul-26 17:33N 27°04' W 080°06'  
Track history (hours):
 
Tides and Currents Weather Stations Pressure Air Temp Water Temp Dewpoint Dewpoint Depression Visibility Wind Speed Wind Dir Waves Ship Positions

Champion

More information available from US FCC via Universal Licensing System and Coast Guard Vessel Documentation Center.

Last reported at 2014-Aug-03 05:27 UTC. Time now 2014-Aug-20 12:44 UTC.
Position N 26°00' W 079°28'.
Warning: this ship's position is 17 days out of date.

Length 20 m; draft 1.7 m.

Type: Towing. MMSI: 367005250.

Date/timePositionNaut miles runAvg speedWind from/ knotsBaromVisibWave heightAir tempDewpointWater temp
2014-Aug-03 05:27N 26°00' W 079°28'4 4.0
2014-Aug-03 04:33N 26°01' W 079°32'4 4.0
2014-Aug-03 03:33N 26°02' W 079°37'4 3.9
2014-Aug-03 02:33N 26°02' W 079°41'4 3.7
2014-Aug-03 01:33N 26°02' W 079°45'4 3.5
2014-Aug-03 00:33N 26°02' W 079°49'3 3.4
2014-Aug-02 23:33N 26°02' W 079°53'4 3.6
2014-Aug-02 22:33N 26°03' W 079°56'4 3.7
2014-Aug-02 21:33N 26°05' W 080°00'4 3.7
2014-Aug-02 20:33N 26°06' W 080°04'4 4.4
2014-Aug-02 19:33N 26°11' W 080°05'5 4.8
2014-Aug-02 18:33N 26°15' W 080°04'5 4.7
2014-Aug-02 17:33N 26°20' W 080°04'5 4.7
2014-Aug-02 16:33N 26°25' W 080°03'5 5.4
2014-Aug-02 15:32N 26°30' W 080°02'17 5.1
2014-Aug-02 12:20N 26°47' W 080°01'3 4.4
2014-Aug-02 11:33N 26°50' W 080°02'4 3.6
2014-Aug-02 10:33N 26°54' W 080°02'4 4.2
2014-Aug-02 09:33N 26°58' W 080°03'5 4.6
2014-Aug-02 08:33N 27°02' W 080°04'  
2014-Jul-30 18:33N 27°03' W 079°60'9 9.1
2014-Jul-30 17:33N 26°54' W 079°60'7 0.4
2014-Jul-29 23:33N 26°47' W 080°01'4 4.3
2014-Jul-29 22:33N 26°51' W 080°02'3 2.9
2014-Jul-29 21:33N 26°54' W 080°03'0 0.1
2014-Jul-29 20:33N 26°54' W 080°03'0 0.0
2014-Jul-29 19:33N 26°54' W 080°03'0 0.1
2014-Jul-29 18:33N 26°54' W 080°03'0 0.0
2014-Jul-29 17:33N 26°54' W 080°03'0 0.0
2014-Jul-29 16:33N 26°54' W 080°03'0 0.1
2014-Jul-29 15:33N 26°54' W 080°03'0 0.1
2014-Jul-29 14:33N 26°54' W 080°03'0 0.3
2014-Jul-29 13:33N 26°54' W 080°03'1 1.1
2014-Jul-29 12:33N 26°53' W 080°02'2 2.2
2014-Jul-29 11:33N 26°51' W 080°02'  
2014-Jul-26 21:21N 26°47' W 080°01'2 2.8
2014-Jul-26 20:33N 26°49' W 080°02'5 5.1
2014-Jul-26 19:33N 26°54' W 080°03'5 4.9
2014-Jul-26 18:33N 26°59' W 080°04'5 5.0
2014-Jul-26 17:33N 27°04' W 080°06'  

Dump ship's entire track history